RJFZ(METAR)
02/20 20:00
METAR RJFZ 201100Z 25007KT 9999 FEW020 BKN040 08/01 Q1023 RMK 1CU020
7CU040 A3022=
戻る
トップページへ戻る
IMOC Co,.Ltd.